Time;durP1;ratioP1;P1;durP2;ratioP2;P2;SDS_P1;SDS_P2;PMS_P1;PMS_P2;Temp;Humidity;BMP_temperature;BMP_pressure;BME280_temperature;BME280_humidity;BME280_pressure;Samples;Min_cycle;Max_cycle;Signal;HPM_P1;HPM_P2
2023/04/06 00:01:08;;;;;;;57.88;3.45;;;;;;;21.78;56.45;99857.25;7310330;19;129231;-39
2023/04/06 00:03:34;;;;;;;63.17;3.70;;;;;;;21.78;56.68;99859.06;7304555;19;129043;-42
2023/04/06 00:05:59;;;;;;;49.57;3.03;;;;;;;21.67;56.22;99846.88;7308653;19;130551;-37
2023/04/06 00:08:26;;;;;;;35.42;2.17;;;;;;;21.74;56.86;99858.47;7310256;19;129192;-38
2023/04/06 00:10:51;;;;;;;;;;;;;;;21.78;56.47;99856.44;7310188;19;129196;-39
2023/04/06 00:13:17;;;;;;;88.82;4.70;;;;;;;21.67;56.81;99853.88;7308730;19;130517;-42
2023/04/06 00:15:42;;;;;;;31.58;1.92;;;;;;;21.76;56.86;99858.31;7310867;19;129674;-43
2023/04/06 00:18:07;;;;;;;14.68;1.20;;;;;;;21.72;56.81;99857.75;7313735;19;129143;-39
2023/04/06 00:20:33;;;;;;;67.32;3.85;;;;;;;21.71;57.01;99865.75;7313519;19;129126;-40
2023/04/06 00:22:58;;;;;;;74.72;4.05;;;;;;;21.75;56.98;99856.69;7305108;19;129482;-43
2023/04/06 00:25:25;;;;;;;49.30;3.10;;;;;;;21.70;56.49;99859.69;7308767;19;130200;-41
2023/04/06 00:27:51;;;;;;;52.35;3.25;;;;;;;21.69;57.11;99863.28;7309500;19;129550;-42
2023/04/06 00:30:16;;;;;;;51.15;3.08;;;;;;;21.69;56.99;99868.50;7309655;19;129011;-40
2023/04/06 00:32:42;;;;;;;55.75;3.20;;;;;;;21.68;56.95;99860.78;7308604;19;130219;-42
2023/04/06 00:35:07;;;;;;;50.80;3.05;;;;;;;21.59;56.66;99851.94;7308850;19;129848;-41
2023/04/06 00:37:33;;;;;;;28.00;2.00;;;;;;;21.69;57.17;99863.28;7310128;19;130832;-39
2023/04/06 00:39:58;;;;;;;84.97;4.70;;;;;;;21.67;56.75;99856.50;7309056;19;129211;-40
2023/04/06 00:42:27;;;;;;;79.70;4.60;;;;;;;21.65;57.00;99856.63;7308595;19;129315;-41
2023/04/06 00:44:54;;;;;;;50.13;2.78;;;;;;;21.63;56.97;99850.72;7309226;19;129660;-37
2023/04/06 00:47:20;;;;;;;25.85;1.75;;;;;;;21.65;57.12;99848.78;7312012;19;129544;-39
2023/04/06 00:49:46;;;;;;;52.28;2.83;;;;;;;21.53;56.49;99835.97;7313047;19;128895;-41
2023/04/06 00:52:11;;;;;;;30.90;2.15;;;;;;;21.62;56.66;99851.69;7310672;19;131161;-43
2023/04/06 00:54:36;;;;;;;42.20;2.73;;;;;;;21.62;57.16;99856.91;7308088;19;130386;-40
2023/04/06 00:57:02;;;;;;;44.70;2.67;;;;;;;21.62;56.76;99854.28;7309400;19;129670;-42
2023/04/06 00:59:28;;;;;;;43.33;2.67;;;;;;;21.58;57.02;99855.53;7310478;19;129687;-39
2023/04/06 01:01:54;;;;;;;45.35;2.60;;;;;;;21.57;56.50;99860.88;7309780;19;129541;-44
2023/04/06 01:04:22;;;;;;;29.45;1.90;;;;;;;21.54;57.13;99853.28;7307944;19;130272;-39
2023/04/06 01:06:48;;;;;;;29.08;1.73;;;;;;;21.55;57.13;99855.78;7309585;19;130360;-39
2023/04/06 01:09:13;;;;;;;55.57;3.07;;;;;;;21.58;56.93;99862.53;7312097;19;129395;-39
2023/04/06 01:11:39;;;;;;;31.97;1.90;;;;;;;21.57;57.19;99856.47;7312730;19;129160;-42
2023/04/06 01:14:04;;;;;;;44.60;2.47;;;;;;;21.56;56.75;99857.44;7308726;19;130157;-40
2023/04/06 01:16:30;;;;;;;30.13;2.00;;;;;;;21.57;56.64;99853.88;7312463;19;130227;-38
2023/04/06 01:18:56;;;;;;;52.53;2.90;;;;;;;21.56;57.34;99852.22;7312523;19;129422;-40
2023/04/06 01:21:21;;;;;;;54.07;3.30;;;;;;;21.44;56.77;99842.81;7311837;19;129084;-40
2023/04/06 01:23:47;;;;;;;46.87;2.90;;;;;;;21.55;56.91;99855.78;7306024;19;129137;-41
2023/04/06 01:26:13;;;;;;;47.60;3.00;;;;;;;21.54;56.82;99848.06;7306932;19;130932;-42
2023/04/06 01:28:39;;;;;;;71.53;4.05;;;;;;;21.54;56.88;99848.91;7308166;19;129220;-40
2023/04/06 01:31:06;;;;;;;44.28;2.67;;;;;;;21.52;56.93;99845.59;7309279;19;129007;-42
2023/04/06 01:33:32;;;;;;;50.92;2.95;;;;;;;21.52;57.51;99842.13;7305703;19;129853;-38
2023/04/06 01:35:57;;;;;;;55.25;3.33;;;;;;;21.44;56.92;99836.75;7307744;19;130762;-43
2023/04/06 01:38:23;;;;;;;73.55;4.43;;;;;;;21.51;57.55;99851.78;7308471;19;129271;-38
2023/04/06 01:40:48;;;;;;;42.63;2.50;;;;;;;21.44;57.16;99831.50;7308549;19;130635;-40
2023/04/06 01:43:14;;;;;;;48.90;3.07;;;;;;;21.51;57.42;99838.72;7305412;19;129032;-40
2023/04/06 01:45:40;;;;;;;60.10;3.27;;;;;;;21.54;57.36;99859.38;7305530;19;129445;-42
2023/04/06 01:48:07;;;;;;;59.22;3.15;;;;;;;21.54;57.35;99848.06;7309774;19;129579;-41
2023/04/06 01:50:32;;;;;;;26.52;1.75;;;;;;;21.45;57.00;99841.84;7311000;19;129633;-40
2023/04/06 01:52:58;;;;;;;56.05;3.13;;;;;;;21.52;57.22;99847.38;7311612;19;131988;-45
2023/04/06 01:55:23;;;;;;;56.33;3.10;;;;;;;21.53;57.60;99842.03;7313874;19;130222;-38
2023/04/06 01:57:49;;;;;;;57.72;3.45;;;;;;;21.53;56.93;99842.03;7314876;19;129230;-41
2023/04/06 02:00:15;;;;;;;47.73;2.90;;;;;;;21.51;57.20;99843.94;7314174;19;130334;-42
2023/04/06 02:02:41;;;;;;;65.10;4.15;;;;;;;21.50;57.40;99839.66;7312812;19;130055;-39
2023/04/06 02:05:07;;;;;;;59.97;3.50;;;;;;;21.50;57.43;99847.50;7312010;19;129173;-42
2023/04/06 02:07:32;;;;;;;53.17;3.07;;;;;;;21.44;57.08;99834.13;7315180;19;129319;-43
2023/04/06 02:09:58;;;;;;;57.80;3.40;;;;;;;21.52;57.37;99840.34;7314207;19;129054;-38
2023/04/06 02:12:23;;;;;;;69.63;3.95;;;;;;;21.53;57.09;99842.03;7312217;19;129953;-43
2023/04/06 02:14:49;;;;;;;58.10;3.33;;;;;;;21.56;57.54;99831.28;7313459;19;129319;-40
2023/04/06 02:17:14;;;;;;;61.20;3.57;;;;;;;21.56;57.09;99841.75;7314441;19;131547;-39
2023/04/06 02:19:40;;;;;;;25.10;1.65;;;;;;;21.56;57.29;99831.28;7316915;19;129023;-37
2023/04/06 02:22:05;;;;;;;48.45;2.55;;;;;;;21.57;57.53;99837.31;7316030;19;129909;-42
2023/04/06 02:24:31;;;;;;;64.60;3.53;;;;;;;21.54;57.22;99821.91;7312782;19;129887;-42
2023/04/06 02:26:56;;;;;;;42.20;2.42;;;;;;;21.56;57.14;99828.69;7312423;19;129188;-38
2023/04/06 02:29:22;;;;;;;47.85;2.90;;;;;;;21.57;57.53;99827.69;7313445;19;129620;-40
2023/04/06 02:31:47;;;;;;;62.08;3.50;;;;;;;21.58;57.61;99823.31;7311981;19;129993;-42
2023/04/06 02:34:17;;;;;;;51.97;3.03;;;;;;;21.57;58.01;99822.47;7310879;19;129843;-40
2023/04/06 02:36:44;;;;;;;49.95;3.00;;;;;;;21.50;58.41;99804.84;7313977;19;129254;-42
2023/04/06 02:39:10;;;;;;;58.45;3.20;;;;;;;21.60;57.35;99816.97;7312711;19;130001;-40
2023/04/06 02:41:36;;;;;;;65.72;3.75;;;;;;;21.58;57.06;99818.91;7312124;19;130333;-39
2023/04/06 02:44:01;;;;;;;70.53;3.87;;;;;;;21.50;57.81;99805.63;7311681;19;131237;-41
2023/04/06 02:46:27;;;;;;;46.70;2.67;;;;;;;21.58;57.60;99824.16;7311503;19;129043;-40
2023/04/06 02:48:52;;;;;;;51.92;2.88;;;;;;;21.58;58.08;99818.91;7315450;19;130769;-41
2023/04/06 02:51:18;;;;;;;71.97;4.07;;;;;;;21.59;56.97;99825.78;7315370;19;130091;-42
2023/04/06 02:53:43;;;;;;;63.67;3.57;;;;;;;21.62;57.97;99825.50;7311124;19;129397;-40
2023/04/06 02:56:08;;;;;;;40.10;2.42;;;;;;;21.65;57.53;99820.00;7315405;19;129796;-38
2023/04/06 02:58:34;;;;;;;28.77;2.13;;;;;;;21.63;58.46;99821.94;7313330;19;129426;-42
2023/04/06 03:00:59;;;;;;;67.07;3.53;;;;;;;21.59;57.97;99825.78;7312317;19;129752;-38
2023/04/06 03:03:25;;;;;;;34.53;2.03;;;;;;;21.59;58.12;99817.94;7310751;19;129791;-37
2023/04/06 03:05:50;;;;;;;36.78;2.13;;;;;;;21.62;58.23;99827.28;7313914;19;129536;-37
2023/04/06 03:08:15;;;;;;;37.05;2.13;;;;;;;21.63;58.09;99827.19;7315110;19;128835;-40
2023/04/06 03:10:41;;;;;;;49.30;2.60;;;;;;;21.65;57.70;99830.47;7314985;19;129110;-38
2023/04/06 03:13:06;;;;;;;22.33;1.42;;;;;;;21.64;58.66;99833.22;7313763;19;130294;-41
2023/04/06 03:15:32;;;;;;;35.53;2.17;;;;;;;21.64;57.98;99828.00;7315091;19;129461;-37
2023/04/06 03:17:57;;;;;;;31.67;2.08;;;;;;;21.63;57.55;99832.41;7315136;19;129584;-41
2023/04/06 03:20:23;;;;;;;57.47;3.13;;;;;;;21.66;58.33;99832.16;7314670;19;129452;-41
2023/04/06 03:22:48;;;;;;;42.93;2.53;;;;;;;21.67;58.53;99823.31;7312443;19;129093;-43
2023/04/06 03:25:13;;;;;;;13.97;1.23;;;;;;;21.69;57.83;99825.81;7311274;19;129237;-39
2023/04/06 03:27:39;;;;;;;66.95;3.60;;;;;;;21.68;58.07;99830.19;7311859;19;129415;-42
2023/04/06 03:30:05;;;;;;;55.70;3.00;;;;;;;21.65;57.89;99825.22;7310594;19;131135;-38
2023/04/06 03:32:31;;;;;;;32.05;1.88;;;;;;;21.63;57.51;99827.19;7309714;19;130334;-43
2023/04/06 03:34:56;;;;;;;58.45;3.30;;;;;;;21.58;57.48;99831.16;7310840;19;130855;-42
2023/04/06 03:37:21;;;;;;;66.97;3.60;;;;;;;21.69;56.97;99831.88;7311097;19;129456;-41
2023/04/06 03:39:47;;;;;;;60.25;3.22;;;;;;;22.19;55.58;99814.31;7311079;19;129925;-42
2023/04/06 03:42:12;;;;;;;63.28;3.50;;;;;;;23.11;52.40;99840.66;7311599;19;129466;-37
2023/04/06 03:44:37;;;;;;;52.15;2.88;;;;;;;23.83;50.35;99840.75;7314448;19;129278;-37
2023/04/06 03:47:03;;;;;;;67.28;3.38;;;;;;;24.54;49.06;99838.16;7312120;19;129229;-38
2023/04/06 03:49:28;;;;;;;67.97;3.73;;;;;;;24.96;47.30;99841.75;7309234;19;130539;-40
2023/04/06 03:51:54;;;;;;;37.65;2.17;;;;;;;25.21;47.31;99843.53;7311565;19;130234;-41
2023/04/06 03:54:19;;;;;;;31.00;1.83;;;;;;;25.28;46.40;99845.41;7306825;19;129784;-38
2023/04/06 03:56:45;;;;;;;37.78;2.22;;;;;;;25.33;46.08;99850.19;7306167;19;130402;-38
2023/04/06 03:59:10;;;;;;;42.50;2.45;;;;;;;25.26;46.08;99826.31;7311119;19;130351;-40
2023/04/06 04:01:35;;;;;;;89.77;4.83;;;;;;;25.52;45.85;99850.78;7311697;19;129224;-37
2023/04/06 04:04:01;;;;;;;47.63;2.73;;;;;;;25.60;46.33;99844.75;7305775;19;129503;-38
2023/04/06 04:06:26;;;;;;;52.70;2.67;;;;;;;25.70;45.49;99846.25;7308846;19;130905;-39
2023/04/06 04:08:52;;;;;;;34.37;2.00;;;;;;;25.78;45.26;99845.47;7311799;19;129567;-43
2023/04/06 04:11:17;;;;;;;42.17;2.67;;;;;;;25.67;45.11;99829.94;7309025;19;129794;-38
2023/04/06 04:13:42;;;;;;;143.10;7.57;;;;;;;25.81;45.16;99847.78;7306481;19;129347;-44
2023/04/06 04:16:08;;;;;;;51.90;2.80;;;;;;;25.88;45.43;99846.16;7310112;19;129982;-42
2023/04/06 04:18:33;;;;;;;19.70;1.40;;;;;;;25.96;45.13;99843.53;7312322;19;129578;-42
2023/04/06 04:20:59;;;;;;;68.77;3.57;;;;;;;26.02;45.10;99844.72;7308546;19;130494;-39
2023/04/06 04:23:24;;;;;;;40.73;2.23;;;;;;;25.93;44.82;99851.75;7309515;19;128945;-43
2023/04/06 04:25:50;;;;;;;17.77;1.23;;;;;;;25.97;44.87;99852.25;7310282;19;129061;-40
2023/04/06 04:28:16;;;;;;;36.92;2.08;;;;;;;25.86;45.09;99856.03;7313016;19;129230;-39
2023/04/06 04:30:41;;;;;;;35.87;2.00;;;;;;;25.78;45.63;99858.63;7311418;19;129501;-38
2023/04/06 04:33:07;;;;;;;43.33;2.43;;;;;;;25.76;45.66;99844.78;7311026;19;129564;-39
2023/04/06 04:35:32;;;;;;;54.00;2.70;;;;;;;25.86;45.38;99855.19;7312731;19;129107;-41
2023/04/06 04:37:58;;;;;;;25.92;1.58;;;;;;;25.84;45.41;99857.16;7311754;19;129351;-40
2023/04/06 04:40:23;;;;;;;36.33;2.20;;;;;;;25.83;45.43;99856.34;7311898;19;130165;-40
2023/04/06 04:42:50;;;;;;;93.63;5.03;;;;;;;25.85;45.15;99853.56;7306796;19;130071;-41
2023/04/06 04:45:16;;;;;;;66.68;3.70;;;;;;;25.92;45.60;99854.53;7311314;19;129489;-39
2023/04/06 04:47:41;;;;;;;29.47;1.80;;;;;;;25.99;45.21;99861.66;7311745;19;129208;-42
2023/04/06 04:50:07;;;;;;;109.90;5.83;;;;;;;26.01;45.47;99858.84;7308600;19;130027;-45
2023/04/06 04:52:32;;;;;;;52.37;2.77;;;;;;;26.05;45.21;99853.13;7310282;19;129132;-38
2023/04/06 04:54:58;;;;;;;45.47;2.50;;;;;;;26.13;45.14;99847.84;7312755;19;129691;-41
2023/04/06 04:57:23;;;;;;;31.57;1.80;;;;;;;26.14;44.69;99844.25;7309115;19;130138;-40
2023/04/06 04:59:50;;;;;;;16.67;1.13;;;;;;;26.04;44.75;99848.84;7311367;19;129312;-41
2023/04/06 05:02:16;;;;;;;68.60;3.60;;;;;;;25.91;45.54;99848.47;7311173;19;128925;-41
2023/04/06 05:04:41;;;;;;;51.50;2.87;;;;;;;25.76;45.93;99852.69;7305552;19;129742;-41
2023/04/06 05:07:09;;;;;;;37.63;2.13;;;;;;;25.54;46.42;99858.53;7309668;19;129016;-41
2023/04/06 05:09:34;;;;;;;31.92;1.75;;;;;;;25.20;46.77;99834.00;7312328;19;130401;-40
2023/04/06 05:12:00;;;;;;;81.80;4.30;;;;;;;25.09;47.16;99852.72;7308172;19;129494;-40
2023/04/06 05:14:26;;;;;;;65.72;3.88;;;;;;;24.99;47.48;99870.41;7305820;19;129622;-41
2023/04/06 05:16:52;;;;;;;36.72;2.05;;;;;;;24.84;47.69;99871.94;7310421;19;129454;-41
2023/04/06 05:19:18;;;;;;;46.83;2.53;;;;;;;24.72;48.05;99874.00;7310155;19;130515;-40
2023/04/06 05:21:43;;;;;;;74.43;4.03;;;;;;;24.78;48.68;99881.25;7310460;19;129142;-41
2023/04/06 05:24:08;;;;;;;54.97;2.93;;;;;;;24.87;47.83;99876.88;7305440;19;129801;-41
2023/04/06 05:26:34;;;;;;;62.97;3.63;;;;;;;24.91;47.97;99873.78;7306388;19;129836;-41
2023/04/06 05:29:00;;;;;;;51.37;2.77;;;;;;;25.05;47.27;99875.03;7318217;19;129070;-40
2023/04/06 05:31:25;;;;;;;47.73;2.83;;;;;;;25.21;47.24;99880.38;7316765;19;129193;-41
2023/04/06 05:33:51;;;;;;;52.80;2.83;;;;;;;25.33;47.03;99879.16;7314155;19;129086;-40
2023/04/06 05:36:16;;;;;;;30.60;1.90;;;;;;;25.46;46.62;99879.56;7316786;19;129399;-41
2023/04/06 05:38:42;;;;;;;24.55;1.40;;;;;;;25.55;46.07;99889.16;7316666;19;129344;-41
2023/04/06 05:41:07;;;;;;;100.30;5.00;;;;;;;25.66;46.47;99883.59;7316022;19;130272;-40
2023/04/06 05:43:32;;;;;;;48.40;3.07;;;;;;;25.68;45.95;99873.75;7315972;19;130484;-40
2023/04/06 05:45:58;;;;;;;42.97;2.37;;;;;;;25.86;46.02;99887.63;7316271;19;130185;-40
2023/04/06 05:48:23;;;;;;;62.07;3.30;;;;;;;25.84;45.56;99881.69;7316253;19;130883;-41
2023/04/06 05:50:50;;;;;;;40.23;2.33;;;;;;;26.04;45.18;99885.75;7317622;19;129038;-41
2023/04/06 05:53:16;;;;;;;23.45;1.58;;;;;;;25.88;45.31;99864.59;7310968;19;129403;-41
2023/04/06 05:55:41;;;;;;;47.53;2.60;;;;;;;25.83;45.23;99884.50;7314694;19;130257;-41
2023/04/06 05:58:07;;;;;;;77.50;3.83;;;;;;;25.76;46.07;99880.84;7314957;19;129604;-41
2023/04/06 06:00:32;;;;;;;32.90;1.90;;;;;;;25.62;45.96;99888.38;7314805;19;129316;-40
2023/04/06 06:02:58;;;;;;;39.77;2.20;;;;;;;25.41;46.32;99881.84;7313923;19;129524;-40
2023/04/06 06:05:23;;;;;;;38.97;2.33;;;;;;;25.13;47.78;99877.72;7316139;19;129137;-40
2023/04/06 06:07:49;;;;;;;56.43;2.97;;;;;;;25.07;47.60;99883.59;7314650;19;129317;-41
2023/04/06 06:10:14;;;;;;;33.27;2.00;;;;;;;24.71;48.33;99868.91;7315800;19;129031;-41
2023/04/06 06:12:40;;;;;;;26.37;1.70;;;;;;;24.66;48.31;99879.00;7315204;19;129715;-40
2023/04/06 06:15:06;;;;;;;68.23;3.67;;;;;;;24.62;48.54;99880.28;7316468;19;129450;-40
2023/04/06 06:17:31;;;;;;;43.70;2.33;;;;;;;24.48;49.52;99875.56;7316819;19;129717;-40
2023/04/06 06:19:57;;;;;;;42.80;2.33;;;;;;;24.59;48.71;99877.97;7316732;19;129292;-40
2023/04/06 06:22:22;;;;;;;44.13;2.53;;;;;;;24.59;49.15;99883.22;7316203;19;129087;-40
2023/04/06 06:24:49;;;;;;;54.30;2.85;;;;;;;24.81;48.26;99874.88;7315610;19;129859;-41
2023/04/06 06:27:14;;;;;;;;;;;;;;;24.92;48.13;99880.72;7315489;19;130287;-41
2023/04/06 06:29:40;;;;;;;46.97;2.47;;;;;;;25.13;47.71;99878.53;7316733;19;129203;-41
2023/04/06 06:32:05;;;;;;;19.77;1.30;;;;;;;25.27;47.75;99879.78;7315700;19;129139;-40
2023/04/06 06:34:31;;;;;;;65.83;3.40;;;;;;;25.40;46.55;99877.56;7316425;19;128953;-41
2023/04/06 06:36:56;;;;;;;39.95;2.38;;;;;;;25.58;46.92;99883.59;7314972;19;129824;-40
2023/04/06 06:39:22;;;;;;;10.68;0.93;;;;;;;25.66;46.00;99878.34;7314410;19;129280;-41
2023/04/06 06:41:47;;;;;;;49.43;2.83;;;;;;;25.76;46.31;99883.47;7315461;19;129224;-41
2023/04/06 06:44:12;;;;;;;48.53;2.57;;;;;;;25.92;45.52;99876.44;7313203;19;129111;-40
2023/04/06 06:46:38;;;;;;;59.87;3.40;;;;;;;25.95;45.75;99860.31;7314054;19;129414;-40
2023/04/06 06:49:03;;;;;;;47.40;2.57;;;;;;;25.95;45.18;99878.75;7316683;19;129396;-40
2023/04/06 06:51:29;;;;;;;69.10;3.80;;;;;;;25.95;45.92;99886.66;7314854;19;128882;-41
2023/04/06 06:53:54;;;;;;;21.20;1.33;;;;;;;25.78;45.65;99887.63;7310858;19;130046;-41
2023/04/06 06:56:20;;;;;;;32.07;1.97;;;;;;;25.58;46.47;99888.84;7315648;19;130240;-39
2023/04/06 06:58:46;;;;;;;32.50;2.00;;;;;;;25.34;46.88;99884.25;7314594;19;129389;-40
2023/04/06 07:01:11;;;;;;;67.23;3.73;;;;;;;25.24;47.57;99893.22;7314411;19;128769;-41
2023/04/06 07:03:36;;;;;;;40.70;2.27;;;;;;;25.02;47.67;99891.13;7312997;19;129259;-40
2023/04/06 07:06:02;;;;;;;41.23;2.27;;;;;;;24.86;48.60;99891.03;7313525;19;129985;-39
2023/04/06 07:08:27;;;;;;;31.17;1.87;;;;;;;24.63;48.38;99879.28;7314246;19;130232;-41
2023/04/06 07:10:55;;;;;;;52.63;3.00;;;;;;;24.57;49.33;99896.50;7314777;19;128791;-40
2023/04/06 07:13:22;;;;;;;41.78;2.42;;;;;;;24.45;49.05;99893.28;7312836;19;132094;-41
2023/04/06 07:15:49;;;;;;;66.55;3.47;;;;;;;24.41;49.74;99891.94;7314052;19;130005;-40
2023/04/06 07:18:14;;;;;;;32.05;1.77;;;;;;;24.40;49.92;99890.28;7314715;19;129615;-39
2023/04/06 07:20:40;;;;;;;50.10;2.63;;;;;;;24.43;49.90;99889.16;7315199;19;128937;-41
2023/04/06 07:23:05;;;;;;;30.27;1.87;;;;;;;24.67;49.12;99892.00;7312647;19;130197;-41
2023/04/06 07:25:30;;;;;;;30.63;1.73;;;;;;;24.85;48.65;99894.63;7314990;19;129381;-40
2023/04/06 07:27:56;;;;;;;10.40;0.88;;;;;;;25.03;47.67;99887.50;7313866;19;129012;-41
2023/04/06 07:30:22;;;;;;;58.58;3.08;;;;;;;25.18;47.37;99885.97;7313485;19;129656;-40
2023/04/06 07:32:48;;;;;;;29.73;1.70;;;;;;;25.38;46.83;99883.00;7312648;19;129632;-41
2023/04/06 07:35:14;;;;;;;32.73;1.70;;;;;;;25.56;46.35;99891.63;7314480;19;129138;-41
2023/04/06 07:37:40;;;;;;;39.85;2.22;;;;;;;25.64;46.38;99872.41;7313838;19;129199;-41
2023/04/06 07:40:06;;;;;;;52.93;2.87;;;;;;;25.75;46.68;99882.63;7314128;19;129845;-40
2023/04/06 07:42:32;;;;;;;95.53;5.27;;;;;;;25.72;46.48;99879.53;7312773;19;129012;-41
2023/04/06 07:44:58;;;;;;;37.83;2.10;;;;;;;25.63;46.64;99881.28;7313835;19;130305;-41
2023/04/06 07:47:23;;;;;;;43.67;2.57;;;;;;;25.50;47.01;99881.72;7311549;19;129468;-40
2023/04/06 07:49:49;;;;;;;44.53;2.47;;;;;;;25.29;47.38;99875.16;7311529;19;128912;-41
2023/04/06 07:52:15;;;;;;;35.77;1.97;;;;;;;25.13;47.95;99881.19;7313398;19;129554;-41
2023/04/06 07:54:41;;;;;;;34.03;2.20;;;;;;;24.93;48.50;99884.16;7314314;19;129468;-41
2023/04/06 07:57:06;;;;;;;57.97;3.28;;;;;;;24.77;49.05;99881.41;7313012;19;129304;-40
2023/04/06 07:59:32;;;;;;;70.47;3.93;;;;;;;24.61;49.49;99876.81;7313263;19;129337;-41
2023/04/06 08:01:57;;;;;;;35.43;2.07;;;;;;;24.51;49.08;99875.25;7313719;19;129161;-41
2023/04/06 08:04:23;;;;;;;27.93;1.53;;;;;;;24.41;49.98;99881.41;7310748;19;129091;-40
2023/04/06 08:06:48;;;;;;;41.35;2.20;;;;;;;24.29;50.00;99882.63;7312408;19;129743;-41
2023/04/06 08:09:13;;;;;;;62.63;3.20;;;;;;;24.21;50.21;99879.91;7310371;19;129159;-41
2023/04/06 08:11:39;;;;;;;45.67;2.80;;;;;;;24.18;50.62;99880.22;7309986;19;129705;-40
2023/04/06 08:14:04;;;;;;;35.77;2.10;;;;;;;24.04;50.36;99882.53;7311096;19;129356;-40
2023/04/06 08:16:30;;;;;;;56.43;2.93;;;;;;;24.06;50.43;99881.44;7314124;19;128958;-39
2023/04/06 08:18:55;;;;;;;29.80;1.90;;;;;;;23.95;51.40;99884.22;7313762;19;129050;-41
2023/04/06 08:21:21;;;;;;;41.28;2.40;;;;;;;23.89;51.21;99876.94;7313158;19;129523;-41
2023/04/06 08:23:46;;;;;;;44.42;2.42;;;;;;;23.80;51.75;99880.41;7310849;19;129554;-41
2023/04/06 08:26:11;;;;;;;54.80;2.73;;;;;;;23.74;52.08;99891.53;7313234;19;129096;-40
2023/04/06 08:28:38;;;;;;;20.67;1.43;;;;;;;23.65;52.11;99887.13;7312888;19;130372;-41
2023/04/06 08:31:06;;;;;;;37.80;2.17;;;;;;;23.64;51.62;99889.91;7312728;19;129375;-41
2023/04/06 08:33:35;;;;;;;9.45;0.98;;;;;;;23.62;51.98;99886.63;7310958;19;129202;-40
2023/04/06 08:36:10;;;;;;;59.10;2.92;;;;;;;23.55;51.87;99875.84;7313405;19;128798;-40
2023/04/06 08:38:35;;;;;;;47.97;2.38;;;;;;;23.61;52.41;99880.53;7313031;19;128854;-41
2023/04/06 08:41:07;;;;;;;39.17;2.17;;;;;;;23.56;52.12;99887.19;7313082;19;129813;-40
2023/04/06 08:43:35;;;;;;;37.50;1.90;;;;;;;23.47;52.15;99859.22;7309506;19;129643;-40
2023/04/06 08:46:01;;;;;;;39.50;2.10;;;;;;;23.42;52.28;99864.88;7311709;19;128867;-41
2023/04/06 08:48:27;;;;;;;68.97;3.30;;;;;;;23.48;52.56;99877.44;7313325;19;129213;-41
2023/04/06 08:50:52;;;;;;;48.37;2.63;;;;;;;23.48;52.92;99872.19;7312841;19;129204;-41
2023/04/06 08:53:18;;;;;;;18.67;1.10;;;;;;;23.32;52.46;99852.78;7310811;19;129531;-40
2023/04/06 08:55:44;;;;;;;86.57;4.50;;;;;;;23.41;53.14;99873.72;7310986;19;129440;-41
2023/04/06 08:58:10;;;;;;;51.20;2.43;;;;;;;23.36;52.50;99870.69;7312155;19;129491;-40
2023/04/06 09:00:39;;;;;;;11.23;0.90;;;;;;;23.36;53.18;99868.06;7313246;19;129031;-41
2023/04/06 09:03:06;;;;;;;31.45;1.83;;;;;;;23.36;52.79;99872.50;7309873;19;129880;-41
2023/04/06 09:05:32;;;;;;;34.78;1.80;;;;;;;23.23;53.18;99847.41;7311618;19;129011;-41
2023/04/06 09:07:57;;;;;;;52.07;2.43;;;;;;;23.27;53.17;99871.56;7309046;19;128962;-41
2023/04/06 09:10:24;;;;;;;41.53;2.30;;;;;;;23.23;52.79;99871.00;7312243;19;129616;-41
2023/04/06 09:12:50;;;;;;;30.65;1.73;;;;;;;23.18;52.93;99856.66;7309375;19;130495;-40
2023/04/06 09:15:20;;;;;;;39.23;2.00;;;;;;;23.29;53.15;99874.88;7311292;19;129118;-41
2023/04/06 09:17:46;;;;;;;49.67;2.45;;;;;;;23.35;52.53;99871.69;7312041;19;130473;-41
2023/04/06 09:20:12;;;;;;;33.17;1.80;;;;;;;23.31;52.52;99872.94;7311430;19;129342;-41
2023/04/06 09:22:41;;;;;;;31.03;1.73;;;;;;;23.33;52.95;99875.41;7311195;19;130353;-41
2023/04/06 09:25:08;;;;;;;55.75;3.03;;;;;;;23.35;53.03;99870.84;7312156;19;129601;-41
2023/04/06 09:27:38;;;;;;;29.77;1.75;;;;;;;23.35;52.61;99869.06;7309038;19;129281;-41
2023/04/06 09:30:08;;;;;;;48.17;2.50;;;;;;;23.32;52.54;99864.06;7310991;19;129630;-41
2023/04/06 09:32:51;;;;;;;30.80;1.83;;;;;;;23.24;53.14;99863.94;7308940;19;129931;-41
2023/04/06 09:35:17;;;;;;;39.03;2.25;;;;;;;23.24;53.45;99862.16;7310360;19;129027;-41
2023/04/06 09:37:43;;;;;;;32.83;1.70;;;;;;;23.28;53.44;99856.66;7309525;19;130034;-40
2023/04/06 09:40:09;;;;;;;68.37;3.33;;;;;;;23.31;52.82;99861.59;7309977;19;129001;-41
2023/04/06 09:42:35;;;;;;;33.22;1.70;;;;;;;23.24;53.38;99856.91;7308616;19;130486;-41
2023/04/06 09:45:02;;;;;;;32.63;1.77;;;;;;;23.29;53.15;99859.13;7309389;19;129611;-41
2023/04/06 09:47:28;;;;;;;;;;;;;;;23.21;53.41;99853.75;7308717;19;129240;-41
2023/04/06 09:49:57;;;;;;;56.03;2.72;;;;;;;23.24;53.24;99856.06;7309854;19;129573;-41
2023/04/06 09:52:30;;;;;;;55.70;2.88;;;;;;;23.23;53.22;99851.81;7310760;19;130659;-40
2023/04/06 09:55:01;;;;;;;31.17;1.67;;;;;;;23.37;52.48;99853.16;7311909;19;129629;-40
2023/04/06 09:57:50;;;;;;;32.60;1.75;;;;;;;23.40;52.77;99851.09;7309999;19;129427;-40
2023/04/06 10:00:20;;;;;;;40.97;2.15;;;;;;;23.58;51.77;99854.59;7309941;19;129297;-40
2023/04/06 10:03:14;;;;;;;36.85;1.88;;;;;;;23.95;51.02;99847.44;7309561;19;129215;-39
2023/04/06 10:05:39;;;;;;;30.85;1.65;;;;;;;24.21;50.80;99843.13;7310325;19;129292;-40
2023/04/06 10:08:12;;;;;;;52.97;2.63;;;;;;;24.32;50.30;99829.78;7308489;19;129133;-41
2023/04/06 10:10:38;;;;;;;23.88;1.50;;;;;;;24.59;49.02;99841.16;7309198;19;129423;-41
2023/04/06 10:13:07;;;;;;;32.90;1.77;;;;;;;24.81;49.03;99852.03;7313296;19;129665;-40
2023/04/06 10:15:33;;;;;;;34.85;1.77;;;;;;;25.01;48.42;99848.22;7317771;19;129144;-41
2023/04/06 10:18:00;;;;;;;49.03;2.43;;;;;;;25.10;48.11;99842.03;7318069;19;129726;-40
2023/04/06 10:20:50;;;;;;;50.67;2.58;;;;;;;25.32;47.49;99846.72;7317335;19;130008;-40
2023/04/06 10:23:49;;;;;;;64.78;3.25;;;;;;;25.30;47.51;99840.78;7314766;19;129468;-41
2023/04/06 10:26:16;;;;;;;69.57;3.38;;;;;;;25.24;48.12;99837.97;7314332;19;130477;-41
2023/04/06 10:28:43;;;;;;;34.70;1.90;;;;;;;25.07;47.84;99838.88;7317286;19;128752;-41
2023/04/06 10:31:08;;;;;;;36.70;1.83;;;;;;;24.97;48.81;99846.06;7317556;19;129477;-40
2023/04/06 10:33:34;;;;;;;41.10;2.10;;;;;;;24.81;49.51;99841.50;7313584;19;130472;-41
2023/04/06 10:36:13;;;;;;;46.22;2.33;;;;;;;24.59;49.30;99841.16;7316444;19;129236;-40
2023/04/06 10:38:40;;;;;;;49.78;2.53;;;;;;;24.49;49.41;99842.06;7316553;19;129199;-40
2023/04/06 10:41:07;;;;;;;37.67;1.95;;;;;;;24.21;50.48;99827.34;7315756;19;129721;-40
2023/04/06 10:43:37;;;;;;;58.50;3.10;;;;;;;24.20;50.88;99838.84;7311869;19;129336;-40
2023/04/06 10:46:04;;;;;;;34.95;1.80;;;;;;;24.04;50.52;99822.94;7316040;19;129373;-40
2023/04/06 10:48:41;;;;;;;58.38;3.08;;;;;;;23.94;51.24;99840.53;7316124;19;129241;-41
2023/04/06 10:51:17;;;;;;;44.10;2.27;;;;;;;23.86;51.36;99840.47;7316000;19;129240;-41
2023/04/06 10:53:45;;;;;;;32.15;1.70;;;;;;;23.80;51.62;99833.16;7314104;19;129169;-41
2023/04/06 10:56:12;;;;;;;34.65;1.77;;;;;;;23.80;51.99;99838.41;7315597;19;128737;-41
2023/04/06 10:58:37;;;;;;;51.35;2.65;;;;;;;23.75;51.54;99830.16;7312646;19;129668;-42
2023/04/06 11:01:03;;;;;;;71.87;3.63;;;;;;;23.86;51.23;99829.97;7314528;19;129885;-41
2023/04/06 11:03:29;;;;;;;41.08;2.08;;;;;;;24.01;51.37;99830.31;7313453;19;130474;-42
2023/04/06 11:05:54;;;;;;;35.33;1.88;;;;;;;24.31;50.31;99822.06;7315904;19;129632;-42
2023/04/06 11:08:26;;;;;;;43.05;2.47;;;;;;;24.59;49.65;99831.47;7311614;19;131078;-41
2023/04/06 11:10:52;;;;;;;64.63;3.08;;;;;;;24.73;49.21;99824.84;7316055;19;130167;-42
2023/04/06 11:13:18;;;;;;;44.17;2.27;;;;;;;24.93;48.87;99813.97;7312369;19;129860;-42